createdAt,value
2022-09-06T00:01:17.143Z,50.30
2022-09-06T00:03:18.849Z,50.40
2022-09-06T00:05:20.499Z,50.50
2022-09-06T00:07:22.181Z,50.50
2022-09-06T00:09:24.059Z,50.60
2022-09-06T00:11:25.727Z,50.40
2022-09-06T00:13:27.394Z,50.30
2022-09-06T00:15:29.280Z,50.60
2022-09-06T00:17:31.672Z,50.70
2022-09-06T00:19:33.353Z,50.60
2022-09-06T00:21:35.752Z,50.60
2022-09-06T00:23:37.443Z,50.70
2022-09-06T00:25:39.175Z,50.70
2022-09-06T00:27:40.896Z,50.70
2022-09-06T00:29:42.627Z,50.70
2022-09-06T00:31:44.409Z,50.60
2022-09-06T00:33:46.478Z,50.80
2022-09-06T00:35:49.219Z,50.90
2022-09-06T00:37:51.721Z,50.70
2022-09-06T00:39:53.468Z,50.70
2022-09-06T00:41:55.160Z,50.70
2022-09-06T00:43:56.900Z,50.80
2022-09-06T00:45:59.003Z,50.90
2022-09-06T00:48:01.655Z,51.00
2022-09-06T00:50:03.920Z,51.10
2022-09-06T00:52:07.902Z,51.00
2022-09-06T00:54:09.806Z,51.10
2022-09-06T00:56:12.176Z,51.00
2022-09-06T00:58:13.819Z,51.00
2022-09-06T01:00:16.075Z,51.10
2022-09-06T01:02:17.863Z,51.10
2022-09-06T01:04:19.703Z,51.20
2022-09-06T01:06:30.181Z,51.40
2022-09-06T01:08:34.612Z,51.40
2022-09-06T01:10:42.493Z,51.50
2022-09-06T01:12:58.558Z,51.40
2022-09-06T01:15:06.093Z,51.30
2022-09-06T01:17:10.773Z,51.30
2022-09-06T01:19:24.728Z,51.70
2022-09-06T01:21:35.086Z,51.50
2022-09-06T01:23:45.987Z,51.60
2022-09-06T01:25:47.634Z,51.80
2022-09-06T01:27:55.247Z,51.90
2022-09-06T01:30:05.499Z,51.70
2022-09-06T01:32:20.544Z,51.60
2022-09-06T01:34:26.807Z,51.70
2022-09-06T01:36:32.018Z,51.70
2022-09-06T01:38:34.211Z,51.70
2022-09-06T01:40:36.527Z,51.90
2022-09-06T01:42:39.439Z,51.90
2022-09-06T01:44:43.765Z,51.80
2022-09-06T01:46:50.599Z,51.90
2022-09-06T01:49:04.086Z,52.10
2022-09-06T01:51:24.541Z,52.00
2022-09-06T01:53:40.913Z,51.40
2022-09-06T01:55:48.551Z,51.40
2022-09-06T01:58:09.077Z,51.20
2022-09-06T02:00:18.124Z,51.30
2022-09-06T02:02:24.589Z,51.10
2022-09-06T02:04:41.576Z,51.00
2022-09-06T02:06:49.273Z,50.90
2022-09-06T02:08:53.267Z,50.90
2022-09-06T02:10:57.152Z,51.10
2022-09-06T02:13:00.391Z,51.10
2022-09-06T02:15:04.808Z,51.20
2022-09-06T02:17:08.743Z,51.20
2022-09-06T02:19:21.281Z,51.00
2022-09-06T02:21:27.839Z,51.20
2022-09-06T02:23:32.590Z,51.30
2022-09-06T02:25:36.929Z,51.20
2022-09-06T02:27:38.677Z,51.30
2022-09-06T02:29:40.727Z,51.40
2022-09-06T02:31:47.197Z,51.50
2022-09-06T02:33:50.439Z,51.40
2022-09-06T02:35:53.190Z,51.40
2022-09-06T02:37:56.283Z,51.60
2022-09-06T02:39:57.946Z,51.60
2022-09-06T02:42:00.643Z,51.70
2022-09-06T02:44:02.529Z,51.90
2022-09-06T02:46:04.217Z,52.20
2022-09-06T02:48:05.943Z,52.20
2022-09-06T02:50:08.205Z,52.30
2022-09-06T02:52:09.867Z,52.50
2022-09-06T02:54:11.546Z,52.60
2022-09-06T02:56:13.232Z,52.40
2022-09-06T02:58:15.331Z,52.70
2022-09-06T03:00:17.247Z,52.90
2022-09-06T03:02:19.036Z,52.80
2022-09-06T03:04:21.004Z,53.10
2022-09-06T03:06:23.096Z,53.20
2022-09-06T03:08:33.245Z,53.20
2022-09-06T03:10:34.964Z,53.50
2022-09-06T03:12:36.626Z,53.50
2022-09-06T03:14:41.115Z,53.40
2022-09-06T03:16:43.252Z,53.40
2022-09-06T03:18:45.071Z,53.60
2022-09-06T03:20:48.583Z,53.70
2022-09-06T03:22:50.266Z,53.60
2022-09-06T03:24:51.937Z,53.50
2022-09-06T03:26:53.589Z,53.60
2022-09-06T03:28:55.364Z,53.80
2022-09-06T03:30:57.169Z,54.00
2022-09-06T03:33:02.650Z,54.20
2022-09-06T03:35:04.797Z,54.20
2022-09-06T03:37:06.914Z,53.90
2022-09-06T03:39:08.792Z,54.30
2022-09-06T03:41:10.471Z,54.20
2022-09-06T03:43:12.116Z,54.20
2022-09-06T03:45:13.796Z,54.20
2022-09-06T03:47:18.873Z,54.20
2022-09-06T03:49:21.372Z,54.30
2022-09-06T03:51:23.080Z,54.30
2022-09-06T03:53:25.530Z,54.50
2022-09-06T03:55:27.210Z,54.20
2022-09-06T03:57:28.872Z,54.30
2022-09-06T03:59:30.570Z,53.80
2022-09-06T04:01:32.641Z,54.10
2022-09-06T04:03:35.220Z,54.30
2022-09-06T04:05:37.051Z,54.30
2022-09-06T04:07:38.884Z,54.70
2022-09-06T04:09:40.542Z,55.20
2022-09-06T04:11:45.002Z,55.20
2022-09-06T04:13:46.910Z,55.40
2022-09-06T04:15:48.945Z,55.20
2022-09-06T04:17:50.650Z,55.50
2022-09-06T04:19:52.310Z,55.60
2022-09-06T04:21:53.977Z,55.60
2022-09-06T04:23:55.671Z,55.20
2022-09-06T04:25:58.257Z,55.20
2022-09-06T04:27:59.941Z,55.30
2022-09-06T04:30:01.743Z,55.50
2022-09-06T04:32:03.474Z,55.20
2022-09-06T04:34:05.229Z,55.60
2022-09-06T04:36:08.394Z,55.80
2022-09-06T04:38:10.023Z,55.60
2022-09-06T04:40:11.884Z,55.20
2022-09-06T04:42:13.566Z,55.60
2022-09-06T04:44:15.221Z,55.70
2022-09-06T04:46:24.016Z,56.00
2022-09-06T04:48:25.702Z,55.70
2022-09-06T04:50:27.391Z,56.00
2022-09-06T04:52:39.395Z,56.00
2022-09-06T04:54:41.059Z,56.00
2022-09-06T04:56:42.709Z,56.00
2022-09-06T04:58:44.883Z,56.20
2022-09-06T05:00:47.750Z,56.20
2022-09-06T05:02:49.433Z,56.80
2022-09-06T05:04:52.207Z,55.80
2022-09-06T05:07:04.692Z,55.70
2022-09-06T05:09:06.346Z,56.20
2022-09-06T05:11:08.527Z,56.40
2022-09-06T05:13:10.179Z,57.10
2022-09-06T05:15:11.852Z,56.40
2022-09-06T05:17:14.694Z,56.60
2022-09-06T05:19:16.698Z,56.30
2022-09-06T05:21:18.792Z,55.90
2022-09-06T05:23:21.158Z,55.80
2022-09-06T05:25:22.839Z,56.40
2022-09-06T05:27:24.587Z,56.60
2022-09-06T05:29:30.401Z,56.20
2022-09-06T05:31:33.491Z,56.50
2022-09-06T05:33:35.293Z,56.90
2022-09-06T05:35:37.027Z,56.80
2022-09-06T05:37:38.705Z,56.90
2022-09-06T05:39:40.481Z,56.60
2022-09-06T05:41:42.260Z,56.40
2022-09-06T05:43:44.069Z,56.50
2022-09-06T05:45:45.856Z,56.40
2022-09-06T05:47:49.776Z,56.50
2022-09-06T05:49:52.037Z,56.50
2022-09-06T05:51:53.734Z,56.90
2022-09-06T05:53:55.400Z,57.00
2022-09-06T05:55:57.054Z,56.90
2022-09-06T05:57:58.689Z,56.90
2022-09-06T06:00:00.322Z,56.60
2022-09-06T06:02:06.610Z,56.70
2022-09-06T06:04:08.964Z,56.60
2022-09-06T06:06:10.645Z,56.50
2022-09-06T06:08:12.301Z,56.80
2022-09-06T06:10:13.944Z,57.00
2022-09-06T06:12:15.594Z,57.10
2022-09-06T06:14:17.271Z,57.00
2022-09-06T06:16:19.930Z,57.30
2022-09-06T06:18:21.669Z,57.00
2022-09-06T06:20:23.384Z,57.30
2022-09-06T06:22:25.034Z,57.20
2022-09-06T06:24:27.149Z,57.00
2022-09-06T06:26:29.911Z,57.30
2022-09-06T06:28:32.142Z,57.20
2022-09-06T06:30:33.819Z,57.80
2022-09-06T06:32:35.552Z,57.00
2022-09-06T06:34:37.260Z,57.20
2022-09-06T06:36:38.963Z,57.40
2022-09-06T06:38:41.579Z,57.40
2022-09-06T06:40:47.233Z,57.10
2022-09-06T06:42:48.899Z,57.20
2022-09-06T06:44:53.233Z,56.90
2022-09-06T06:46:57.810Z,56.80
2022-09-06T06:48:59.981Z,57.00
2022-09-06T06:51:01.759Z,57.30
2022-09-06T06:53:03.491Z,57.20
2022-09-06T06:55:05.914Z,57.20
2022-09-06T06:57:09.402Z,57.00
2022-09-06T06:59:11.397Z,56.90
2022-09-06T07:01:13.799Z,57.20
2022-09-06T07:03:15.703Z,57.20
2022-09-06T07:07:41.051Z,57.40
2022-09-06T07:12:05.129Z,57.50
2022-09-06T07:14:06.803Z,57.40
2022-09-06T07:16:16.016Z,57.20
2022-09-06T07:18:18.230Z,57.20
2022-09-06T07:20:22.718Z,57.10
2022-09-06T07:22:24.440Z,57.20
2022-09-06T07:24:26.109Z,57.10
2022-09-06T07:26:29.246Z,57.20
2022-09-06T07:28:31.742Z,57.20
2022-09-06T07:30:37.277Z,57.20
2022-09-06T07:32:39.010Z,57.20
2022-09-06T07:34:41.604Z,57.10
2022-09-06T07:36:43.288Z,57.10
2022-09-06T07:38:47.918Z,57.00
2022-09-06T07:40:53.808Z,56.90
2022-09-06T07:42:59.244Z,56.90
2022-09-06T07:45:00.988Z,56.90
2022-09-06T07:49:31.654Z,57.00
2022-09-06T07:51:35.928Z,56.90
2022-09-06T07:53:38.475Z,57.00
2022-09-06T07:55:40.194Z,57.10
2022-09-06T07:57:41.863Z,57.00
2022-09-06T07:59:43.559Z,57.00
2022-09-06T08:01:47.415Z,57.00
2022-09-06T08:03:49.216Z,57.20
2022-09-06T08:10:34.205Z,57.00
2022-09-06T08:12:35.881Z,57.00
2022-09-06T08:14:37.554Z,56.90
2022-09-06T08:16:39.365Z,56.80
2022-09-06T08:18:41.138Z,56.80
2022-09-06T08:20:42.791Z,56.70
2022-09-06T08:22:44.466Z,56.70
2022-09-06T08:24:46.126Z,56.50
2022-09-06T08:26:47.792Z,56.40
2022-09-06T08:28:53.339Z,56.30
2022-09-06T08:30:55.074Z,56.20
2022-09-06T08:32:56.801Z,56.10
2022-09-06T08:34:58.469Z,56.00
2022-09-06T08:37:00.133Z,55.90
2022-09-06T08:39:02.819Z,55.80
2022-09-06T08:41:12.339Z,55.70
2022-09-06T08:43:18.186Z,55.80
2022-09-06T08:45:19.945Z,55.80
2022-09-06T08:47:21.741Z,55.60
2022-09-06T08:49:24.670Z,55.40
2022-09-06T08:51:33.423Z,55.40
2022-09-06T08:53:39.299Z,55.40
2022-09-06T08:55:54.066Z,55.40
2022-09-06T08:58:14.579Z,55.50
2022-09-06T09:00:17.205Z,55.40
2022-09-06T09:02:20.767Z,55.30
2022-09-06T09:04:24.064Z,55.30
2022-09-06T09:06:26.577Z,55.30
2022-09-06T09:08:28.343Z,55.30
2022-09-06T09:10:32.434Z,55.30
2022-09-06T09:12:36.870Z,55.20
2022-09-06T09:14:39.269Z,55.10
2022-09-06T09:16:41.091Z,55.10
2022-09-06T09:18:44.679Z,55.00
2022-09-06T09:20:46.421Z,55.00
2022-09-06T09:22:48.624Z,55.00
2022-09-06T09:24:51.816Z,54.90
2022-09-06T09:26:55.289Z,54.90
2022-09-06T09:29:03.729Z,55.00
2022-09-06T09:31:07.269Z,54.90
2022-09-06T09:33:23.060Z,54.90
2022-09-06T09:35:35.112Z,54.80
2022-09-06T09:37:55.901Z,54.90
2022-09-06T09:39:58.542Z,54.90
2022-09-06T09:42:00.291Z,54.80
2022-09-06T09:44:04.855Z,54.80
2022-09-06T09:46:15.800Z,54.80
2022-09-06T09:48:23.839Z,54.80
2022-09-06T09:50:25.538Z,54.70
2022-09-06T09:52:29.148Z,54.70
2022-09-06T09:54:32.103Z,54.60
2022-09-06T09:56:45.741Z,54.60
2022-09-06T09:58:47.584Z,54.50
2022-09-06T10:00:50.134Z,54.60
2022-09-06T10:02:51.843Z,54.60
2022-09-06T10:04:58.981Z,54.50
2022-09-06T10:07:11.339Z,54.50
2022-09-06T10:09:19.553Z,54.50
2022-09-06T10:11:41.043Z,54.40
2022-09-06T10:13:43.134Z,54.30
2022-09-06T10:15:45.119Z,54.30
2022-09-06T10:17:51.374Z,54.20
2022-09-06T10:19:53.497Z,54.00
2022-09-06T10:21:57.355Z,54.20
2022-09-06T10:26:48.097Z,54.10
2022-09-06T10:28:54.821Z,54.20
2022-09-06T10:31:02.435Z,54.10
2022-09-06T10:33:20.755Z,54.10
2022-09-06T10:35:31.518Z,54.00
2022-09-06T10:37:39.124Z,53.90
2022-09-06T10:39:43.701Z,53.70
2022-09-06T10:41:55.151Z,53.60
2022-09-06T10:43:59.863Z,53.70
2022-09-06T10:46:01.631Z,53.80
2022-09-06T10:48:14.607Z,53.70
2022-09-06T10:50:17.020Z,53.80
2022-09-06T10:52:21.496Z,53.80
2022-09-06T10:54:24.336Z,53.80
2022-09-06T10:56:32.433Z,53.90
2022-09-06T11:01:01.862Z,53.90
2022-09-06T11:05:50.165Z,53.80
2022-09-06T11:10:22.263Z,53.70
2022-09-06T11:12:32.689Z,53.80
2022-09-06T11:14:35.093Z,53.80
2022-09-06T11:16:41.997Z,53.60
2022-09-06T11:18:46.606Z,53.50
2022-09-06T11:21:04.308Z,53.50
2022-09-06T11:23:09.262Z,53.50
2022-09-06T11:25:29.678Z,53.40
2022-09-06T11:27:31.320Z,53.40
2022-09-06T11:29:34.349Z,53.20
2022-09-06T11:34:23.317Z,53.20
2022-09-06T11:36:46.032Z,53.30
2022-09-06T11:38:57.408Z,53.00
2022-09-06T11:41:01.453Z,52.70
2022-09-06T11:43:03.675Z,52.50
2022-09-06T11:45:06.469Z,52.40
2022-09-06T11:47:09.307Z,52.60
2022-09-06T11:49:30.840Z,52.20
2022-09-06T11:51:34.402Z,52.00
2022-09-06T11:53:48.546Z,51.80
2022-09-06T11:56:02.539Z,52.00
2022-09-06T11:58:06.471Z,51.60
2022-09-06T12:00:17.806Z,51.70
2022-09-06T12:02:28.635Z,51.40
2022-09-06T12:04:49.309Z,51.40
2022-09-06T12:07:09.531Z,50.90
2022-09-06T12:09:29.565Z,51.20
2022-09-06T12:11:36.810Z,50.90
2022-09-06T12:13:40.271Z,50.90
2022-09-06T12:15:45.696Z,50.40
2022-09-06T12:17:47.856Z,50.20
2022-09-06T12:19:49.564Z,50.10
2022-09-06T12:21:52.393Z,50.10
2022-09-06T12:23:54.127Z,50.00
2022-09-06T12:25:56.471Z,49.70
2022-09-06T12:28:01.978Z,50.10
2022-09-06T12:30:12.123Z,49.90
2022-09-06T12:32:19.178Z,49.70
2022-09-06T12:34:34.455Z,49.80
2022-09-06T12:36:36.532Z,49.50
2022-09-06T12:38:38.197Z,49.50
2022-09-06T12:40:45.310Z,49.00
2022-09-06T12:42:47.760Z,48.80
2022-09-06T12:44:51.654Z,49.00
2022-09-06T12:46:53.834Z,49.10
2022-09-06T12:49:09.243Z,49.20
2022-09-06T12:51:19.476Z,49.00
2022-09-06T12:53:26.498Z,49.00
2022-09-06T12:55:32.487Z,48.60
2022-09-06T12:57:34.392Z,48.70
2022-09-06T12:59:36.108Z,48.20
2022-09-06T13:01:38.089Z,48.10
2022-09-06T13:03:43.634Z,47.50
2022-09-06T13:05:45.651Z,47.90
2022-09-06T13:07:50.317Z,47.50
2022-09-06T13:09:54.148Z,47.70
2022-09-06T13:12:00.479Z,47.80
2022-09-06T13:14:13.812Z,47.30
2022-09-06T13:16:23.527Z,46.80
2022-09-06T13:18:32.613Z,46.30
2022-09-06T13:20:34.377Z,47.10
2022-09-06T13:22:38.971Z,46.70
2022-09-06T13:24:46.852Z,46.70
2022-09-06T13:26:49.547Z,46.20
2022-09-06T13:28:51.188Z,45.80
2022-09-06T13:31:03.566Z,46.00
2022-09-06T13:33:07.212Z,46.80
2022-09-06T13:35:10.094Z,45.90
2022-09-06T13:37:11.880Z,47.00
2022-09-06T13:39:28.218Z,46.20
2022-09-06T13:41:29.881Z,45.80
2022-09-06T13:43:39.646Z,45.50
2022-09-06T13:45:41.318Z,45.20
2022-09-06T13:47:43.048Z,45.10
2022-09-06T13:49:44.723Z,44.90
2022-09-06T13:51:46.392Z,44.70
2022-09-06T13:53:48.884Z,44.80
2022-09-06T13:55:52.689Z,44.80
2022-09-06T13:57:54.341Z,44.70
2022-09-06T13:59:56.105Z,44.60
2022-09-06T14:02:00.865Z,44.60
2022-09-06T14:04:02.987Z,44.70
2022-09-06T14:06:04.752Z,44.40
2022-09-06T14:08:06.441Z,44.50
2022-09-06T14:10:08.430Z,44.70
2022-09-06T14:12:10.532Z,44.80
2022-09-06T14:14:12.894Z,44.60
2022-09-06T14:16:14.685Z,44.70
2022-09-06T14:18:16.826Z,44.80
2022-09-06T14:20:18.519Z,44.90
2022-09-06T14:22:20.183Z,45.00
2022-09-06T14:24:21.969Z,45.10
2022-09-06T14:26:24.155Z,45.20
2022-09-06T14:28:26.138Z,45.40
2022-09-06T14:30:27.878Z,45.60
2022-09-06T14:32:29.572Z,45.60
2022-09-06T14:34:31.525Z,45.70
2022-09-06T14:36:33.397Z,45.60
2022-09-06T14:38:36.667Z,45.70
2022-09-06T14:40:38.854Z,45.70
2022-09-06T14:42:40.551Z,45.90
2022-09-06T14:44:42.261Z,46.10
2022-09-06T14:46:44.018Z,46.30
2022-09-06T14:48:46.448Z,46.40
2022-09-06T14:50:48.133Z,46.50
2022-09-06T14:52:49.853Z,46.60
2022-09-06T14:54:51.558Z,46.80
2022-09-06T14:56:53.236Z,47.00
2022-09-06T14:58:57.218Z,47.30
2022-09-06T15:01:08.315Z,47.20
2022-09-06T15:03:10.079Z,47.10
2022-09-06T15:05:11.834Z,47.10
2022-09-06T15:07:13.580Z,47.30
2022-09-06T15:09:16.287Z,47.30
2022-09-06T15:11:56.386Z,47.50
2022-09-06T15:13:58.597Z,47.80
2022-09-06T15:16:00.466Z,47.80
2022-09-06T15:18:02.265Z,47.70
2022-09-06T15:20:04.243Z,47.70
2022-09-06T15:22:06.458Z,47.90
2022-09-06T15:24:11.939Z,48.00
2022-09-06T15:26:14.860Z,47.80
2022-09-06T15:28:18.381Z,47.90
2022-09-06T15:30:20.072Z,47.70
2022-09-06T15:32:22.592Z,47.80
2022-09-06T15:34:25.582Z,47.90
2022-09-06T15:36:27.810Z,48.00
2022-09-06T15:38:29.549Z,48.20
2022-09-06T15:40:31.343Z,48.50
2022-09-06T15:42:33.652Z,48.60
2022-09-06T15:44:35.372Z,48.40
2022-09-06T15:46:50.605Z,48.20
2022-09-06T15:48:53.716Z,48.20
2022-09-06T15:50:55.539Z,48.40
2022-09-06T15:52:57.233Z,48.60
2022-09-06T15:55:17.487Z,48.70
2022-09-06T15:57:19.311Z,48.70
2022-09-06T15:59:21.071Z,48.90
2022-09-06T16:01:23.620Z,48.70
2022-09-06T16:03:25.459Z,48.70
2022-09-06T16:07:48.911Z,48.80
2022-09-06T16:09:50.630Z,48.70
2022-09-06T16:11:52.541Z,48.70
2022-09-06T16:13:54.569Z,48.50
2022-09-06T16:15:57.232Z,48.50
2022-09-06T16:18:04.948Z,48.50
2022-09-06T16:20:06.790Z,48.60
2022-09-06T16:22:08.506Z,48.70
2022-09-06T16:24:11.451Z,48.50
2022-09-06T16:26:14.418Z,48.60
2022-09-06T16:28:17.670Z,48.70
2022-09-06T16:30:19.425Z,48.90
2022-09-06T16:32:21.157Z,48.90
2022-09-06T16:34:22.892Z,49.10
2022-09-06T16:36:25.269Z,49.40
2022-09-06T16:38:32.721Z,49.70
2022-09-06T16:40:37.292Z,49.80
2022-09-06T16:42:38.978Z,50.10
2022-09-06T16:44:40.636Z,50.10
2022-09-06T16:46:42.848Z,50.00
2022-09-06T16:48:50.567Z,50.10
2022-09-06T16:50:52.411Z,50.30
2022-09-06T16:52:54.142Z,50.70
2022-09-06T16:54:55.815Z,50.70
2022-09-06T16:56:57.576Z,50.90
2022-09-06T16:59:00.556Z,51.00
2022-09-06T17:01:02.408Z,51.10
2022-09-06T17:03:04.145Z,51.20
2022-09-06T17:05:06.161Z,51.20
2022-09-06T17:07:07.974Z,51.30
2022-09-06T17:09:10.656Z,51.50
2022-09-06T17:11:14.676Z,51.60
2022-09-06T17:13:16.365Z,51.60
2022-09-06T17:15:18.164Z,51.90
2022-09-06T17:17:19.856Z,51.70
2022-09-06T17:19:22.032Z,51.70
2022-09-06T17:21:24.332Z,52.00
2022-09-06T17:23:26.607Z,52.20
2022-09-06T17:25:28.345Z,52.20
2022-09-06T17:27:30.241Z,52.30
2022-09-06T17:29:32.554Z,52.30
2022-09-06T17:31:34.476Z,52.50
2022-09-06T17:33:36.191Z,52.60
2022-09-06T17:35:37.899Z,52.50
2022-09-06T17:37:39.651Z,52.80
2022-09-06T17:39:41.950Z,52.70
2022-09-06T17:41:47.834Z,53.00
2022-09-06T17:43:50.146Z,52.90
2022-09-06T17:45:51.940Z,53.10
2022-09-06T17:47:53.657Z,53.40
2022-09-06T17:49:55.345Z,53.40
2022-09-06T17:51:57.125Z,54.10
2022-09-06T17:53:58.822Z,53.50
2022-09-06T17:56:04.986Z,53.70
2022-09-06T17:58:06.781Z,53.60
2022-09-06T18:00:08.855Z,53.50
2022-09-06T18:02:10.785Z,53.50
2022-09-06T18:04:13.112Z,53.90
2022-09-06T18:06:16.015Z,54.00
2022-09-06T18:08:17.715Z,54.10
2022-09-06T18:10:19.498Z,54.20
2022-09-06T18:12:22.492Z,54.00
2022-09-06T18:14:24.236Z,54.10
2022-09-06T18:16:26.716Z,53.90
2022-09-06T18:18:28.806Z,54.10
2022-09-06T18:20:30.590Z,54.00
2022-09-06T18:22:33.033Z,54.10
2022-09-06T18:24:34.812Z,54.30
2022-09-06T18:26:37.391Z,54.50
2022-09-06T18:28:39.124Z,54.40
2022-09-06T18:30:41.432Z,54.20
2022-09-06T18:32:43.648Z,54.20
2022-09-06T18:34:45.435Z,54.10
2022-09-06T18:36:47.242Z,54.20
2022-09-06T18:38:49.025Z,54.10
2022-09-06T18:40:52.080Z,54.50
2022-09-06T18:42:53.831Z,54.40
2022-09-06T18:44:56.749Z,54.50
2022-09-06T18:46:59.902Z,54.30
2022-09-06T18:49:01.727Z,54.40
2022-09-06T18:51:12.828Z,54.40
2022-09-06T18:53:18.174Z,54.50
2022-09-06T18:55:19.938Z,54.50
2022-09-06T18:57:21.929Z,54.30
2022-09-06T18:59:23.921Z,54.60
2022-09-06T19:01:30.083Z,54.70
2022-09-06T19:03:32.912Z,54.80
2022-09-06T19:05:35.548Z,54.80
2022-09-06T19:07:37.252Z,54.60
2022-09-06T19:09:39.023Z,54.70
2022-09-06T19:11:46.894Z,54.50
2022-09-06T19:13:52.793Z,54.70
2022-09-06T19:15:54.560Z,54.70
2022-09-06T19:17:57.002Z,54.70
2022-09-06T19:19:59.004Z,54.60
2022-09-06T19:22:00.831Z,54.70
2022-09-06T19:24:04.437Z,54.50
2022-09-06T19:26:14.568Z,54.60
2022-09-06T19:28:16.594Z,54.70
2022-09-06T19:30:19.800Z,54.90
2022-09-06T19:32:22.283Z,55.10
2022-09-06T19:34:24.128Z,55.10
2022-09-06T19:36:27.611Z,55.10
2022-09-06T19:38:37.384Z,54.90
2022-09-06T19:40:48.992Z,54.90
2022-09-06T19:42:50.783Z,55.10
2022-09-06T19:44:52.759Z,55.30
2022-09-06T19:46:55.100Z,55.30
2022-09-06T19:48:57.190Z,55.30
2022-09-06T19:51:03.196Z,55.10
2022-09-06T19:53:07.297Z,55.30
2022-09-06T19:55:09.413Z,55.40
2022-09-06T19:57:11.252Z,55.40
2022-09-06T19:59:14.157Z,55.30
2022-09-06T20:01:18.070Z,55.10
2022-09-06T20:03:20.622Z,55.30
2022-09-06T20:05:22.725Z,55.20
2022-09-06T20:07:24.562Z,55.40
2022-09-06T20:09:26.334Z,55.10
2022-09-06T20:11:29.220Z,55.00
2022-09-06T20:13:31.488Z,56.00
2022-09-06T20:15:36.743Z,55.20
2022-09-06T20:17:38.644Z,55.30
2022-09-06T20:19:40.676Z,55.30
2022-09-06T20:21:42.997Z,55.10
2022-09-06T20:23:48.535Z,55.30
2022-09-06T20:25:57.783Z,55.50
2022-09-06T20:27:59.595Z,55.30
2022-09-06T20:30:01.558Z,55.70
2022-09-06T20:32:03.666Z,55.70
2022-09-06T20:34:06.355Z,55.70
2022-09-06T20:36:09.449Z,55.50
2022-09-06T20:38:11.205Z,55.60
2022-09-06T20:40:13.922Z,55.70
2022-09-06T20:42:15.689Z,55.70
2022-09-06T20:44:17.480Z,55.80
2022-09-06T20:46:20.661Z,55.70
2022-09-06T20:48:22.481Z,55.60
2022-09-06T20:50:24.216Z,55.60
2022-09-06T20:52:26.263Z,55.70
2022-09-06T20:54:28.129Z,55.60
2022-09-06T20:56:35.154Z,55.50
2022-09-06T20:58:40.041Z,55.40
2022-09-06T21:00:41.899Z,55.70
2022-09-06T21:02:43.672Z,55.50
2022-09-06T21:04:45.438Z,55.60
2022-09-06T21:06:49.401Z,55.50
2022-09-06T21:08:51.165Z,55.70
2022-09-06T21:10:57.873Z,55.80
2022-09-06T21:13:00.077Z,55.70
2022-09-06T21:15:01.774Z,55.60
2022-09-06T21:17:03.628Z,55.60
2022-09-06T21:19:06.381Z,55.80
2022-09-06T21:21:08.214Z,55.70
2022-09-06T21:23:09.907Z,55.70
2022-09-06T21:25:12.246Z,55.80
2022-09-06T21:27:14.019Z,55.80
2022-09-06T21:29:15.770Z,55.70
2022-09-06T21:31:27.770Z,55.80
2022-09-06T21:33:31.135Z,55.70
2022-09-06T21:35:34.139Z,55.90
2022-09-06T21:37:35.966Z,56.00
2022-09-06T21:39:38.302Z,56.00
2022-09-06T21:41:41.346Z,56.00
2022-09-06T21:43:43.516Z,56.00
2022-09-06T21:45:45.457Z,55.80
2022-09-06T21:47:47.224Z,55.90
2022-09-06T21:49:49.019Z,55.90
2022-09-06T21:51:51.799Z,55.90
2022-09-06T21:53:54.063Z,55.80
2022-09-06T21:56:00.132Z,55.70
2022-09-06T21:58:01.907Z,55.90
2022-09-06T22:00:03.979Z,55.80
2022-09-06T22:02:06.826Z,55.90
2022-09-06T22:04:10.606Z,55.80
2022-09-06T22:06:13.915Z,56.00
2022-09-06T22:08:15.593Z,55.90
2022-09-06T22:10:17.410Z,55.70
2022-09-06T22:12:19.146Z,56.10
2022-09-06T22:14:20.933Z,55.90
2022-09-06T22:16:22.814Z,55.90
2022-09-06T22:18:24.548Z,56.20
2022-09-06T22:20:26.271Z,56.20
2022-09-06T22:22:28.322Z,56.20
2022-09-06T22:24:30.035Z,56.10
2022-09-06T22:26:32.926Z,56.20
2022-09-06T22:28:34.739Z,56.20
2022-09-06T22:30:36.447Z,56.30
2022-09-06T22:32:38.232Z,56.20
2022-09-06T22:34:40.367Z,56.20
2022-09-06T22:36:42.106Z,56.20
2022-09-06T22:38:43.867Z,56.30
2022-09-06T22:40:45.802Z,56.10
2022-09-06T22:42:47.535Z,56.30
2022-09-06T22:44:49.269Z,56.30
2022-09-06T22:46:51.053Z,56.40
2022-09-06T22:48:53.086Z,56.30
2022-09-06T22:50:54.942Z,56.30
2022-09-06T22:52:56.989Z,56.40
2022-09-06T22:54:58.691Z,56.50
2022-09-06T22:57:00.450Z,56.40
2022-09-06T22:59:02.487Z,56.40
2022-09-06T23:01:11.897Z,56.20
2022-09-06T23:03:13.727Z,56.20
2022-09-06T23:05:15.510Z,56.30
2022-09-06T23:07:17.249Z,56.40
2022-09-06T23:09:20.747Z,56.20
2022-09-06T23:11:22.585Z,56.40
2022-09-06T23:13:24.282Z,56.40
2022-09-06T23:15:26.255Z,56.20
2022-09-06T23:17:28.966Z,56.50
2022-09-06T23:19:30.730Z,56.30
2022-09-06T23:21:32.504Z,56.40
2022-09-06T23:23:34.950Z,56.40
2022-09-06T23:25:37.337Z,56.60
2022-09-06T23:27:39.027Z,56.50
2022-09-06T23:29:43.672Z,56.60
2022-09-06T23:31:46.956Z,56.50
2022-09-06T23:33:51.402Z,56.60
2022-09-06T23:35:55.889Z,56.60
2022-09-06T23:37:57.614Z,56.50
2022-09-06T23:39:59.394Z,57.50
2022-09-06T23:42:02.056Z,56.50
2022-09-06T23:44:03.876Z,56.70
2022-09-06T23:46:06.023Z,56.80
2022-09-06T23:48:07.740Z,56.80
2022-09-06T23:50:09.616Z,56.80
2022-09-06T23:52:11.550Z,56.70
2022-09-06T23:54:13.297Z,56.80
2022-09-06T23:56:15.732Z,56.80
2022-09-06T23:58:17.454Z,56.80
